Time;durP1;ratioP1;P1;durP2;ratioP2;P2;SDS_P1;SDS_P2;PMS_P1;PMS_P2;Temp;Humidity;BMP_temperature;BMP_pressure;BME280_temperature;BME280_humidity;BME280_pressure;Samples;Min_cycle;Max_cycle;Signal;HPM_P1;HPM_P2
2022/10/25 00:02:13;;;;;;;0.40;0.30;;;;;;;15.31;64.89;95875.75;5132792;27;20792;-52
2022/10/25 00:04:42;;;;;;;0.40;0.30;;;;;;;15.23;65.04;95879.03;5132941;27;20845;-52
2022/10/25 00:07:10;;;;;;;1.13;1.13;;;;;;;15.20;65.35;95867.03;5132562;27;20536;-53
2022/10/25 00:09:38;;;;;;;0.40;0.20;;;;;;;14.73;65.01;95786.97;5132575;27;21075;-53
2022/10/25 00:12:08;;;;;;;0.60;0.30;;;;;;;15.34;65.53;95867.16;5132305;27;20446;-53
2022/10/25 00:14:36;;;;;;;0.40;0.30;;;;;;;15.28;65.62;95858.41;5132280;27;20426;-53
2022/10/25 00:17:05;;;;;;;0.83;0.50;;;;;;;15.22;65.46;95866.78;5132331;27;20422;-54
2022/10/25 00:19:33;;;;;;;0.50;0.30;;;;;;;15.08;65.64;95861.31;5132618;27;20439;-53
2022/10/25 00:22:01;;;;;;;0.40;0.20;;;;;;;15.08;65.87;95866.66;5132535;27;20433;-52
2022/10/25 00:24:30;;;;;;;0.40;0.20;;;;;;;14.97;65.67;95846.50;5131777;27;20553;-53
2022/10/25 00:26:58;;;;;;;0.40;0.30;;;;;;;15.01;65.61;95852.84;5131500;27;20445;-53
2022/10/25 00:29:28;;;;;;;0.40;0.30;;;;;;;15.10;65.52;95861.06;5132095;27;20521;-53
2022/10/25 00:31:56;;;;;;;0.40;0.23;;;;;;;14.99;65.18;95859.56;5131726;27;20433;-53
2022/10/25 00:34:24;;;;;;;0.40;0.20;;;;;;;15.00;65.57;95863.84;5132502;27;20957;-54
2022/10/25 00:36:52;;;;;;;0.40;0.20;;;;;;;14.93;65.32;95856.13;5132079;27;20433;-53
2022/10/25 00:39:21;;;;;;;0.50;0.30;;;;;;;14.90;65.93;95835.34;5132305;27;20448;-53
2022/10/25 00:41:49;;;;;;;0.40;0.20;;;;;;;15.02;65.89;95859.78;5132559;27;20430;-54
2022/10/25 00:44:49;;;;;;;0.40;0.30;;;;;;;14.97;66.14;95857.19;5132069;27;20795;-54
2022/10/25 00:47:38;;;;;;;2.30;0.30;;;;;;;15.02;66.71;95859.00;5131979;27;20425;-54
2022/10/25 00:50:29;;;;;;;1.27;1.17;;;;;;;14.61;67.56;95847.94;5132342;27;20957;-53
2022/10/25 00:53:05;;;;;;;0.40;0.30;;;;;;;14.64;67.27;95847.38;5132000;27;20438;-53
2022/10/25 00:55:34;;;;;;;0.40;0.20;;;;;;;14.50;66.95;95822.41;5134771;27;20912;-53
2022/10/25 00:58:07;;;;;;;2.80;1.27;;;;;;;14.73;66.71;95844.88;5135698;27;20444;-53
2022/10/25 01:00:37;;;;;;;0.47;0.47;;;;;;;14.68;67.47;95834.25;5135767;27;20433;-53
2022/10/25 01:03:06;;;;;;;0.40;0.30;;;;;;;14.67;66.95;95835.34;5135835;27;20429;-53
2022/10/25 01:05:36;;;;;;;0.50;0.30;;;;;;;14.60;67.23;95836.47;5135566;27;20426;-53
2022/10/25 01:08:05;;;;;;;0.53;0.30;;;;;;;14.66;66.63;95836.41;5135273;27;20464;-53
2022/10/25 01:10:33;;;;;;;0.40;0.30;;;;;;;14.63;67.21;95835.09;5135574;27;20917;-53
2022/10/25 01:13:02;;;;;;;0.40;0.30;;;;;;;14.70;67.07;95829.44;5135287;27;20441;-53
2022/10/25 01:15:37;;;;;;;0.40;0.30;;;;;;;14.75;67.15;95830.16;5135410;27;20513;-53
2022/10/25 01:18:15;;;;;;;0.40;0.30;;;;;;;14.60;67.67;95831.13;5135610;27;20867;-53
2022/10/25 01:21:13;;;;;;;0.40;0.30;;;;;;;14.62;67.39;95834.28;5135514;27;20437;-52
2022/10/25 01:23:58;;;;;;;0.40;0.20;;;;;;;14.46;67.34;95835.53;5122268;27;20462;-52
2022/10/25 01:27:02;;;;;;;0.40;0.20;;;;;;;14.47;67.75;95826.44;5134988;27;20480;-53
2022/10/25 01:30:03;;;;;;;0.40;0.20;;;;;;;14.35;67.87;95820.69;5135137;27;20473;-53
2022/10/25 01:32:39;;;;;;;0.40;0.30;;;;;;;14.43;67.86;95816.63;5123795;27;20457;-53
2022/10/25 01:35:16;;;;;;;0.40;0.30;;;;;;;14.54;68.41;95812.78;5134888;27;20425;-53
2022/10/25 01:37:56;;;;;;;0.93;0.93;;;;;;;14.40;67.73;95820.66;5135000;27;20426;-53
2022/10/25 01:40:30;;;;;;;0.40;0.30;;;;;;;13.89;70.72;95822.06;5134556;27;20422;-53
2022/10/25 01:43:07;;;;;;;1.67;0.53;;;;;;;13.48;73.94;95812.78;5135114;27;20447;-53
2022/10/25 01:45:41;;;;;;;14.03;1.73;;;;;;;13.71;74.03;95822.75;5134787;27;20890;-52
2022/10/25 01:48:17;;;;;;;2.50;1.23;;;;;;;14.04;72.44;95823.88;5134910;27;20442;-53
2022/10/25 01:50:47;;;;;;;0.40;0.30;;;;;;;14.01;71.57;95807.34;5134449;27;20429;-53
2022/10/25 01:53:16;;;;;;;1.57;0.93;;;;;;;13.54;76.34;95819.63;5134600;27;20940;-52
2022/10/25 01:55:51;;;;;;;0.50;0.40;;;;;;;13.02;78.34;95734.97;5134896;27;20449;-52
2022/10/25 01:58:32;;;;;;;0.80;0.80;;;;;;;13.73;75.92;95823.28;5134914;27;20801;-53
2022/10/25 02:01:10;;;;;;;0.43;0.37;;;;;;;13.75;75.88;95819.25;5134806;27;20795;-52
2022/10/25 02:03:49;;;;;;;0.63;0.63;;;;;;;13.73;76.34;95816.09;5134381;27;20441;-53
2022/10/25 02:06:29;;;;;;;0.53;0.43;;;;;;;13.78;75.71;95808.06;5134130;27;20422;-53
2022/10/25 02:09:06;;;;;;;1.00;0.50;;;;;;;13.78;75.47;95797.41;5134229;27;20485;-53
2022/10/25 02:11:35;;;;;;;0.40;0.20;;;;;;;14.22;75.40;95839.19;5133229;27;20438;-53
2022/10/25 02:14:15;;;;;;;0.40;0.30;;;;;;;13.57;75.04;95774.63;5134771;27;20437;-52
2022/10/25 02:16:49;;;;;;;0.40;0.30;;;;;;;13.94;73.68;95817.50;5134144;27;20434;-53
2022/10/25 02:19:24;;;;;;;0.40;0.30;;;;;;;13.91;73.07;95812.72;5134077;27;20428;-53
2022/10/25 02:21:53;;;;;;;0.40;0.20;;;;;;;13.90;73.56;95810.34;5133945;27;20436;-53
2022/10/25 02:24:25;;;;;;;0.40;0.30;;;;;;;13.90;73.69;95816.50;5134054;27;20433;-54
2022/10/25 02:26:55;;;;;;;0.40;0.30;;;;;;;13.95;74.21;95808.47;5134018;27;20913;-53
2022/10/25 02:29:25;;;;;;;0.90;0.90;;;;;;;13.90;74.36;95818.34;5134096;27;20847;-53
2022/10/25 02:31:54;;;;;;;0.67;0.67;;;;;;;13.63;74.36;95816.16;5134178;27;20433;-53
2022/10/25 02:34:24;;;;;;;0.40;0.20;;;;;;;13.82;74.07;95816.28;5133817;27;20442;-53
2022/10/25 02:36:54;;;;;;;0.60;0.30;;;;;;;13.65;73.82;95794.56;5133726;27;20431;-53
2022/10/25 02:39:24;;;;;;;0.40;0.37;;;;;;;13.56;75.42;95820.97;5133507;27;20438;-53
2022/10/25 02:41:57;;;;;;;0.40;0.30;;;;;;;13.28;76.28;95829.66;5133915;27;20489;-53
2022/10/25 02:44:25;;;;;;;0.50;0.30;;;;;;;13.01;81.33;95826.50;5133590;27;20960;-53
2022/10/25 02:46:54;;;;;;;0.40;0.30;;;;;;;13.34;78.29;95826.69;5133921;27;20430;-53
2022/10/25 02:49:23;;;;;;;0.60;0.57;;;;;;;13.52;76.87;95827.91;5133413;27;20475;-53
2022/10/25 02:51:52;;;;;;;0.60;0.30;;;;;;;13.47;75.42;95797.84;5133482;27;20429;-53
2022/10/25 02:54:20;;;;;;;0.83;0.30;;;;;;;13.56;75.76;95826.28;5133574;27;20451;-53
2022/10/25 02:56:51;;;;;;;0.40;0.20;;;;;;;13.72;78.71;95824.34;5133325;27;20433;-53
2022/10/25 02:59:20;;;;;;;0.40;0.30;;;;;;;13.74;76.16;95825.66;5133379;27;20877;-53
2022/10/25 03:01:49;;;;;;;0.40;0.30;;;;;;;13.70;76.30;95829.94;5133503;27;20855;-53
2022/10/25 03:04:17;;;;;;;0.40;0.20;;;;;;;13.15;76.70;95804.41;5133200;27;20444;-53
2022/10/25 03:06:47;;;;;;;0.40;0.40;;;;;;;12.84;80.37;95818.06;5133490;27;20429;-53
2022/10/25 03:09:15;;;;;;;0.40;0.30;;;;;;;13.30;79.76;95824.84;5132917;27;20471;-53
2022/10/25 03:11:43;;;;;;;0.60;0.60;;;;;;;13.51;76.87;95828.97;5133465;27;20429;-53
2022/10/25 03:14:12;;;;;;;0.93;0.33;;;;;;;13.70;76.15;95829.94;5132664;27;20440;-53
2022/10/25 03:16:40;;;;;;;0.40;0.20;;;;;;;13.73;75.59;95821.41;5133298;27;20430;-53
2022/10/25 03:19:08;;;;;;;0.80;0.80;;;;;;;13.75;74.62;95821.94;5132371;27;20460;-54
2022/10/25 03:21:37;;;;;;;0.73;0.67;;;;;;;13.18;75.46;95824.38;5132937;27;20437;-53
2022/10/25 03:24:10;;;;;;;0.40;0.30;;;;;;;12.47;81.78;95799.81;5132687;27;21044;-53
2022/10/25 03:26:38;;;;;;;1.53;0.87;;;;;;;12.77;80.50;95812.22;5133221;27;20754;-53
2022/10/25 03:29:06;;;;;;;0.60;0.33;;;;;;;13.21;78.36;95802.50;5133065;27;20873;-53
2022/10/25 03:31:34;;;;;;;0.40;0.20;;;;;;;13.23;76.83;95816.38;5132164;27;20455;-53
2022/10/25 03:34:03;;;;;;;0.60;0.37;;;;;;;13.33;76.41;95806.44;5132986;27;20448;-53
2022/10/25 03:36:31;;;;;;;0.40;0.30;;;;;;;13.44;75.77;95811.72;5132299;27;20431;-53
2022/10/25 03:38:59;;;;;;;0.40;0.30;;;;;;;13.26;75.86;95805.16;5132450;27;20434;-53
2022/10/25 03:41:30;;;;;;;0.50;0.40;;;;;;;13.10;77.24;95814.28;5132212;27;20450;-53
2022/10/25 03:43:59;;;;;;;0.87;0.87;;;;;;;12.81;80.00;95813.28;5132679;27;20436;-53
2022/10/25 03:46:27;;;;;;;0.40;0.30;;;;;;;12.88;79.92;95816.44;5132359;27;20438;-53
2022/10/25 03:48:55;;;;;;;0.40;0.20;;;;;;;12.96;79.22;95811.38;5132415;27;20910;-53
2022/10/25 03:51:26;;;;;;;1.33;1.20;;;;;;;13.06;78.85;95815.84;5132222;27;20460;-53
2022/10/25 03:53:55;;;;;;;6.87;1.00;;;;;;;12.89;79.92;95815.38;5132092;27;20433;-53
2022/10/25 03:56:23;;;;;;;0.40;0.30;;;;;;;12.93;79.28;95819.88;5132738;27;20441;-53
2022/10/25 03:58:53;;;;;;;0.50;0.40;;;;;;;13.03;79.00;95827.06;5132662;27;20442;-53
2022/10/25 04:01:21;;;;;;;0.50;0.40;;;;;;;13.00;78.94;95824.94;5132348;27;20433;-53
2022/10/25 04:03:49;;;;;;;0.50;0.40;;;;;;;12.96;79.46;95823.88;5132113;27;20486;-53
2022/10/25 04:06:18;;;;;;;0.43;0.40;;;;;;;12.95;79.02;95827.63;5132516;27;20431;-53
2022/10/25 04:08:46;;;;;;;0.50;0.40;;;;;;;13.02;79.72;95817.47;5132444;27;20447;-53
2022/10/25 04:11:14;;;;;;;0.43;0.30;;;;;;;13.07;78.82;95822.81;5132458;27;20460;-53
2022/10/25 04:13:43;;;;;;;1.67;0.50;;;;;;;12.95;78.32;95817.78;5131555;27;20435;-53
2022/10/25 04:16:13;;;;;;;0.60;0.57;;;;;;;12.96;78.33;95815.88;5131757;27;20426;-53
2022/10/25 04:18:46;;;;;;;0.50;0.40;;;;;;;12.97;78.37;95809.50;5132046;27;20430;-53
2022/10/25 04:21:14;;;;;;;0.80;0.50;;;;;;;13.01;76.97;95799.91;5132054;27;20778;-53
2022/10/25 04:23:42;;;;;;;5.00;0.60;;;;;;;13.21;76.64;95810.50;5131091;27;20432;-53
2022/10/25 04:26:13;;;;;;;1.63;1.13;;;;;;;13.21;76.35;95813.97;5131815;27;20468;-53
2022/10/25 04:28:41;;;;;;;4.70;2.30;;;;;;;13.16;76.21;95815.84;5131846;27;20433;-52
2022/10/25 04:31:10;;;;;;;0.40;0.30;;;;;;;12.21;79.66;95812.34;5135361;27;20495;-53
2022/10/25 04:33:39;;;;;;;0.43;0.40;;;;;;;12.22;86.62;95816.56;5136362;27;20906;-53
2022/10/25 04:36:10;;;;;;;0.40;0.30;;;;;;;12.61;80.76;95817.59;5134828;27;20433;-53
2022/10/25 04:38:39;;;;;;;0.50;0.50;;;;;;;12.87;78.54;95798.91;5135967;27;20442;-53
2022/10/25 04:41:07;;;;;;;1.33;0.60;;;;;;;12.95;76.36;95793.03;5135652;27;20846;-53
2022/10/25 04:43:36;;;;;;;0.70;0.70;;;;;;;13.06;76.70;95816.69;5135794;27;20913;-53
2022/10/25 04:46:04;;;;;;;1.23;0.50;;;;;;;13.23;76.01;95817.13;5136141;27;20426;-54
2022/10/25 04:48:32;;;;;;;0.40;0.30;;;;;;;13.30;75.64;95814.19;5135601;27;20917;-52
2022/10/25 04:51:02;;;;;;;0.57;0.50;;;;;;;13.19;74.99;95809.97;5134843;27;20460;-53
2022/10/25 04:53:30;;;;;;;0.40;0.30;;;;;;;13.35;75.81;95820.28;5135627;27;20430;-52
2022/10/25 04:55:59;;;;;;;0.50;0.50;;;;;;;13.27;75.38;95817.41;5135352;27;20428;-53
2022/10/25 04:58:28;;;;;;;2.60;0.97;;;;;;;13.22;74.73;95823.53;5135656;27;20429;-52
2022/10/25 05:01:00;;;;;;;0.57;0.57;;;;;;;13.14;74.82;95829.44;5135280;27;20513;-53
2022/10/25 05:03:29;;;;;;;0.40;0.30;;;;;;;13.15;75.08;95808.94;5135471;27;20517;-53
2022/10/25 05:06:07;;;;;;;0.70;0.70;;;;;;;12.97;76.68;95828.13;5135096;27;20436;-53
2022/10/25 05:08:35;;;;;;;0.50;0.33;;;;;;;13.12;77.08;95830.78;5135116;27;20429;-53
2022/10/25 05:11:04;;;;;;;0.53;0.50;;;;;;;13.07;76.66;95820.94;5135484;27;20987;-53
2022/10/25 05:13:33;;;;;;;0.70;0.60;;;;;;;12.98;77.86;95827.06;5135388;27;20425;-53
2022/10/25 05:16:02;;;;;;;1.00;1.00;;;;;;;12.74;81.09;95835.66;5134927;27;20437;-53
2022/10/25 05:18:31;;;;;;;3.53;1.07;;;;;;;12.32;86.38;95821.88;5134471;27;20440;-52
2022/10/25 05:21:02;;;;;;;1.43;1.40;;;;;;;12.30;87.97;95817.88;5134652;27;20436;-53
2022/10/25 05:23:33;;;;;;;6.80;2.30;;;;;;;12.31;91.04;95835.44;5134212;27;21033;-53
2022/10/25 05:26:04;;;;;;;0.87;0.87;;;;;;;11.92;97.06;95824.53;5134543;27;20473;-53
2022/10/25 05:28:32;;;;;;;4.03;1.47;;;;;;;12.13;95.67;95817.38;5135000;27;20816;-52
2022/10/25 05:31:03;;;;;;;1.37;0.77;;;;;;;12.22;96.04;95837.81;5134661;27;20462;-52
2022/10/25 05:33:32;;;;;;;0.40;0.30;;;;;;;12.56;92.04;95824.78;5135085;27;20486;-53
2022/10/25 05:36:01;;;;;;;0.67;0.67;;;;;;;12.80;90.27;95836.41;5134566;27;20425;-51
2022/10/25 05:38:32;;;;;;;0.90;0.73;;;;;;;13.06;88.47;95848.63;5134609;27;20460;-54
2022/10/25 05:41:05;;;;;;;1.17;1.17;;;;;;;13.38;85.76;95841.03;5133999;27;20418;-54
2022/10/25 05:43:34;;;;;;;0.70;0.40;;;;;;;13.92;81.16;95819.66;5134369;27;20889;-57
2022/10/25 05:46:05;;;;;;;0.40;0.23;;;;;;;14.78;77.75;95836.81;5134530;27;20425;-57
2022/10/25 05:48:35;;;;;;;0.53;0.53;;;;;;;14.56;75.92;95835.44;5134529;27;20917;-57
2022/10/25 05:51:11;;;;;;;2.63;1.07;;;;;;;15.09;73.72;95838.88;5133339;27;20465;-56
2022/10/25 05:54:02;;;;;;;0.50;0.33;;;;;;;14.59;75.03;95828.75;5134077;27;20453;-57
2022/10/25 05:56:32;;;;;;;0.50;0.43;;;;;;;14.64;75.35;95834.03;5134448;27;20440;-56
2022/10/25 05:59:09;;;;;;;0.60;0.60;;;;;;;14.83;74.65;95829.56;5134384;27;20473;-57
2022/10/25 06:01:39;;;;;;;1.33;1.23;;;;;;;14.88;74.41;95842.03;5134273;27;20424;-57
2022/10/25 06:04:08;;;;;;;0.40;0.30;;;;;;;15.19;72.92;95841.44;5134006;27;20438;-59
2022/10/25 06:06:38;;;;;;;0.40;0.30;;;;;;;15.33;72.04;95838.84;5134260;27;20428;-59
2022/10/25 06:09:10;;;;;;;0.60;0.50;;;;;;;15.08;71.64;95753.72;5134108;27;20443;-60
2022/10/25 06:11:39;;;;;;;4.47;1.03;;;;;;;15.85;70.46;95830.72;5133245;27;20543;-60
2022/10/25 06:14:10;;;;;;;0.40;0.30;;;;;;;16.51;68.95;95835.03;5133820;27;20647;-60
2022/10/25 06:16:39;;;;;;;0.50;0.50;;;;;;;16.43;68.77;95836.50;5133488;27;20430;-61
2022/10/25 06:19:07;;;;;;;0.40;0.30;;;;;;;17.64;66.48;95846.84;5134125;27;20909;-60
2022/10/25 06:21:36;;;;;;;0.80;0.70;;;;;;;17.76;64.09;95833.72;5133950;27;20439;-62
2022/10/25 06:24:05;;;;;;;0.50;0.30;;;;;;;17.78;63.42;95839.59;5133849;27;20976;-62
2022/10/25 06:26:35;;;;;;;3.47;1.40;;;;;;;18.06;62.55;95827.69;5133837;27;20430;-62
2022/10/25 06:29:04;;;;;;;1.50;1.43;;;;;;;18.93;60.22;95832.50;5133615;27;20430;-62
2022/10/25 06:31:33;;;;;;;0.60;0.50;;;;;;;18.29;61.30;95839.22;5133660;27;20489;-62
2022/10/25 06:34:02;;;;;;;2.40;1.23;;;;;;;17.96;62.21;95840.53;5133387;27;20435;-62
2022/10/25 06:36:31;;;;;;;4.37;2.10;;;;;;;18.26;61.18;95832.56;5133444;27;20422;-63
2022/10/25 06:38:59;;;;;;;1.70;1.60;;;;;;;18.48;61.21;95829.13;5133682;27;20910;-62
2022/10/25 06:41:36;;;;;;;7.83;1.23;;;;;;;18.77;60.14;95829.44;5133475;27;20510;-61
2022/10/25 06:44:05;;;;;;;2.33;2.23;;;;;;;18.97;58.19;95825.44;5133247;27;20938;-59
2022/10/25 06:46:36;;;;;;;0.60;0.60;;;;;;;19.44;57.74;95821.19;5133297;27;20480;-58
2022/10/25 06:49:25;;;;;;;2.83;2.20;;;;;;;19.75;55.71;95823.78;5132856;27;20427;-58
2022/10/25 06:51:53;;;;;;;0.80;0.73;;;;;;;20.05;55.31;95817.47;5133455;27;20978;-58
2022/10/25 06:54:21;;;;;;;1.40;1.37;;;;;;;20.37;54.61;95818.91;5133437;27;20444;-56
2022/10/25 06:56:51;;;;;;;0.80;0.73;;;;;;;20.33;54.38;95809.91;5133316;27;20433;-57
2022/10/25 06:59:19;;;;;;;2.30;0.60;;;;;;;19.66;54.65;95802.25;5133137;27;20451;-58
2022/10/25 07:01:48;;;;;;;4.73;2.70;;;;;;;19.49;54.48;95737.69;5133427;27;20438;-56
2022/10/25 07:04:17;;;;;;;1.03;0.93;;;;;;;20.24;54.68;95753.38;5133197;27;20462;-56
2022/10/25 07:06:45;;;;;;;1.20;0.50;;;;;;;20.70;53.30;95793.81;5132966;27;20436;-56
2022/10/25 07:09:19;;;;;;;0.93;0.87;;;;;;;19.40;55.96;95812.19;5132783;27;20929;-60
2022/10/25 07:11:48;;;;;;;7.27;4.13;;;;;;;19.16;56.57;95807.16;5132881;27;20462;-59
2022/10/25 07:14:17;;;;;;;1.40;1.30;;;;;;;19.34;56.26;95819.56;5132868;27;20441;-60
2022/10/25 07:16:46;;;;;;;2.20;1.33;;;;;;;19.70;55.42;95791.66;5132901;27;20423;-53
2022/10/25 07:19:15;;;;;;;0.90;0.90;;;;;;;20.34;53.62;95806.09;5132782;27;20474;-53
2022/10/25 07:21:44;;;;;;;1.73;1.63;;;;;;;21.53;51.52;95796.81;5133185;27;20497;-53
2022/10/25 07:24:12;;;;;;;1.37;1.27;;;;;;;21.91;50.74;95807.53;5132027;27;20431;-53
2022/10/25 07:26:40;;;;;;;1.23;1.13;;;;;;;23.05;51.42;95807.75;5133162;27;20924;-53
2022/10/25 07:29:09;;;;;;;1.03;0.80;;;;;;;23.16;48.98;95798.06;5133059;27;20438;-53
2022/10/25 07:31:41;;;;;;;6.37;1.13;;;;;;;23.80;47.21;95799.00;5132731;27;20470;-53
2022/10/25 07:34:11;;;;;;;1.70;0.83;;;;;;;23.20;47.26;95798.97;5132980;27;20460;-52
2022/10/25 07:36:40;;;;;;;1.03;0.63;;;;;;;23.40;46.60;95786.50;5132487;27;20423;-52
2022/10/25 07:39:08;;;;;;;0.50;0.40;;;;;;;23.30;46.81;95785.78;5132439;27;20442;-53
2022/10/25 07:41:37;;;;;;;4.83;0.73;;;;;;;23.78;46.69;95782.28;5132302;27;20419;-51
2022/10/25 07:44:05;;;;;;;0.67;0.67;;;;;;;23.89;46.05;95777.97;5132631;27;20427;-52
2022/10/25 07:46:39;;;;;;;0.90;0.90;;;;;;;23.89;46.13;95775.28;5132845;27;20434;-51
2022/10/25 07:49:07;;;;;;;0.70;0.60;;;;;;;23.53;46.13;95777.25;5132361;27;20432;-51
2022/10/25 07:51:35;;;;;;;6.10;2.30;;;;;;;23.87;46.85;95766.69;5132134;27;20478;-52
2022/10/25 07:54:04;;;;;;;0.50;0.33;;;;;;;24.50;44.88;95758.81;5132670;27;20435;-50
2022/10/25 07:56:32;;;;;;;1.23;0.80;;;;;;;24.70;44.58;95755.06;5132391;27;20431;-50
2022/10/25 07:59:00;;;;;;;4.00;0.47;;;;;;;24.88;42.88;95755.56;5131931;27;20431;-50
2022/10/25 08:01:29;;;;;;;3.90;0.93;;;;;;;24.48;43.53;95758.38;5132755;27;20435;-51
2022/10/25 08:03:58;;;;;;;2.30;0.70;;;;;;;24.77;42.55;95765.34;5132827;27;20427;-51
2022/10/25 08:06:27;;;;;;;4.47;1.27;;;;;;;24.88;41.73;95756.34;5136704;27;20427;-51
2022/10/25 08:08:55;;;;;;;1.40;0.70;;;;;;;24.79;42.35;95744.13;5136782;27;20943;-51
2022/10/25 08:11:26;;;;;;;1.67;1.57;;;;;;;25.90;41.88;95752.56;5136817;27;20415;-51
2022/10/25 08:13:55;;;;;;;7.50;2.10;;;;;;;26.06;39.87;95749.78;5136557;27;20438;-50
2022/10/25 08:16:23;;;;;;;0.83;0.83;;;;;;;26.43;40.44;95700.06;5136727;27;20418;-50
2022/10/25 08:18:51;;;;;;;1.53;1.43;;;;;;;27.52;39.23;95731.06;5136499;27;20430;-51
2022/10/25 08:21:21;;;;;;;3.27;2.40;;;;;;;27.89;38.95;95727.66;5136068;27;20434;-51
2022/10/25 08:23:49;;;;;;;5.83;1.67;;;;;;;27.08;38.32;95725.31;5135948;27;20454;-51
2022/10/25 08:26:22;;;;;;;0.87;0.87;;;;;;;27.56;38.68;95723.72;5136106;27;20485;-52
2022/10/25 08:28:51;;;;;;;1.73;1.57;;;;;;;29.12;37.05;95711.88;5136378;27;20431;-51
2022/10/25 08:31:20;;;;;;;2.40;1.30;;;;;;;28.74;36.52;95707.66;5136145;27;20435;-51
2022/10/25 08:33:48;;;;;;;0.83;0.70;;;;;;;28.59;37.25;95703.97;5135959;27;20962;-51
2022/10/25 08:36:16;;;;;;;0.93;0.90;;;;;;;27.73;38.15;95715.00;5135991;27;20419;-50
2022/10/25 08:38:46;;;;;;;0.80;0.70;;;;;;;28.57;38.21;95687.19;5135814;27;20517;-51
2022/10/25 08:41:21;;;;;;;1.33;1.27;;;;;;;29.72;35.59;95695.91;5136061;27;20419;-51
2022/10/25 08:44:07;;;;;;;1.33;0.90;;;;;;;28.50;36.09;95692.59;5135527;27;20431;-51
2022/10/25 08:46:40;;;;;;;17.00;1.30;;;;;;;28.20;37.15;95689.16;5135704;27;20463;-51
2022/10/25 08:49:20;;;;;;;0.73;0.73;;;;;;;28.04;36.73;95692.06;5135661;27;20434;-51
2022/10/25 08:51:50;;;;;;;1.23;1.13;;;;;;;28.16;37.16;95691.81;5135490;27;20765;-51
2022/10/25 08:54:26;;;;;;;0.83;0.80;;;;;;;29.54;35.33;95687.63;5135856;27;20431;-51
2022/10/25 08:57:05;;;;;;;0.50;0.50;;;;;;;29.13;33.64;95678.75;5135918;27;20433;-51
2022/10/25 08:59:52;;;;;;;0.70;0.70;;;;;;;29.48;33.33;95642.69;5135677;27;20487;-51
2022/10/25 09:02:33;;;;;;;0.80;0.70;;;;;;;29.69;34.20;95675.59;5136033;27;20435;-51
2022/10/25 09:05:02;;;;;;;1.53;0.70;;;;;;;29.65;34.70;95668.56;5135778;27;20496;-51
2022/10/25 09:07:55;;;;;;;2.43;1.00;;;;;;;29.80;33.48;95673.75;5134138;27;20427;-51
2022/10/25 09:10:35;;;;;;;0.70;0.60;;;;;;;29.87;33.08;95660.09;5135479;27;20426;-51
2022/10/25 09:13:12;;;;;;;1.60;1.03;;;;;;;29.37;33.24;95626.25;5135222;27;20942;-52
2022/10/25 09:15:53;;;;;;;0.50;0.30;;;;;;;30.57;33.05;95656.00;5134290;27;20438;-51
2022/10/25 09:18:36;;;;;;;0.70;0.70;;;;;;;30.23;33.06;95655.53;5135247;27;20457;-52
2022/10/25 09:21:15;;;;;;;0.40;0.40;;;;;;;30.30;32.80;95647.34;5135327;27;20934;-52
2022/10/25 09:24:01;;;;;;;2.70;0.87;;;;;;;30.68;32.38;95645.88;5135285;27;20605;-52
2022/10/25 09:26:40;;;;;;;0.57;0.50;;;;;;;31.20;31.13;95639.63;5134831;27;20477;-52
2022/10/25 09:29:24;;;;;;;0.57;0.43;;;;;;;30.84;32.49;95646.25;5134923;27;20526;-52
2022/10/25 09:31:56;;;;;;;1.70;0.40;;;;;;;30.35;32.74;95638.00;5135193;27;21147;-52
2022/10/25 09:34:29;;;;;;;5.40;0.97;;;;;;;30.69;31.58;95636.47;5135199;27;20477;-52
2022/10/25 09:37:06;;;;;;;9.00;0.53;;;;;;;30.67;32.32;95628.66;5135172;27;20806;-51
2022/10/25 09:39:39;;;;;;;0.63;0.60;;;;;;;31.88;31.21;95630.03;5134710;27;20422;-51
2022/10/25 09:42:16;;;;;;;1.37;0.60;;;;;;;32.24;30.65;95629.91;5134859;27;20422;-52
2022/10/25 09:44:49;;;;;;;16.60;1.03;;;;;;;31.71;31.66;95611.72;5135052;27;20430;-52
2022/10/25 09:47:26;;;;;;;3.17;0.80;;;;;;;31.99;29.64;95619.06;5134633;27;20426;-52
2022/10/25 09:50:00;;;;;;;0.93;0.93;;;;;;;31.82;29.79;95615.22;5134480;27;20430;-53
2022/10/25 09:52:37;;;;;;;0.93;0.70;;;;;;;32.14;29.43;95606.06;5134957;27;20419;-54
2022/10/25 09:55:31;;;;;;;1.23;1.07;;;;;;;32.00;29.91;95604.94;5134467;27;20430;-54
2022/10/25 09:58:02;;;;;;;4.77;0.83;;;;;;;32.27;29.11;95605.19;5133768;27;20522;-53
2022/10/25 10:00:30;;;;;;;0.50;0.40;;;;;;;31.94;29.42;95603.00;5134703;27;20449;-53
2022/10/25 10:02:59;;;;;;;1.13;1.13;;;;;;;31.82;30.34;95587.00;5134710;27;20929;-53
2022/10/25 10:05:29;;;;;;;0.60;0.60;;;;;;;32.62;29.43;95582.22;5134445;27;20426;-53
2022/10/25 10:07:57;;;;;;;2.50;2.30;;;;;;;31.36;30.63;95576.97;5134355;27;20430;-54
2022/10/25 10:10:29;;;;;;;0.83;0.60;;;;;;;31.46;29.79;95572.66;5134570;27;20949;-53
2022/10/25 10:13:04;;;;;;;0.77;0.53;;;;;;;32.01;29.74;95572.81;5134363;27;20473;-53
2022/10/25 10:15:37;;;;;;;0.43;0.40;;;;;;;31.89;29.51;95571.31;5134328;27;20440;-53
2022/10/25 10:18:23;;;;;;;2.83;0.53;;;;;;;31.41;30.23;95562.88;5133998;27;20427;-53
2022/10/25 10:21:13;;;;;;;16.20;0.50;;;;;;;31.55;29.29;95562.06;5134232;27;20415;-53
2022/10/25 10:23:49;;;;;;;0.80;0.60;;;;;;;32.30;28.87;95563.25;5133597;27;20429;-53
2022/10/25 10:26:26;;;;;;;3.80;0.40;;;;;;;31.66;29.31;95562.78;5134043;27;20470;-53
2022/10/25 10:29:04;;;;;;;0.50;0.50;;;;;;;31.45;29.25;95557.41;5133510;27;20430;-53
2022/10/25 10:31:38;;;;;;;12.13;1.20;;;;;;;31.21;29.38;95553.56;5133857;27;20419;-54
2022/10/25 10:34:21;;;;;;;0.40;0.30;;;;;;;31.88;29.52;95556.03;5133909;27;20480;-53
2022/10/25 10:37:01;;;;;;;1.40;1.07;;;;;;;31.87;28.63;95548.22;5133810;27;20429;-53
2022/10/25 10:39:30;;;;;;;0.50;0.40;;;;;;;32.77;28.50;95542.50;5133721;27;20786;-53
2022/10/25 10:42:03;;;;;;;0.97;0.67;;;;;;;32.47;28.60;95536.84;5134136;27;20418;-53
2022/10/25 10:44:34;;;;;;;0.50;0.40;;;;;;;32.33;29.46;95524.03;5134001;27;20483;-53
2022/10/25 10:47:09;;;;;;;0.40;0.40;;;;;;;32.69;28.51;95529.25;5133959;27;20780;-53
2022/10/25 10:49:41;;;;;;;0.40;0.30;;;;;;;33.29;28.04;95523.94;5133532;27;20441;-53
2022/10/25 10:52:27;;;;;;;0.40;0.30;;;;;;;32.49;28.03;95518.78;5133565;27;21049;-54
2022/10/25 10:54:58;;;;;;;0.63;0.63;;;;;;;31.51;29.29;95522.16;5133162;27;20474;-52
2022/10/25 10:57:32;;;;;;;1.17;1.00;;;;;;;30.90;29.92;95507.84;5133331;27;20422;-52
2022/10/25 11:00:02;;;;;;;1.07;0.57;;;;;;;31.39;30.32;95504.19;5133282;27;20431;-52
2022/10/25 11:02:40;;;;;;;2.10;0.63;;;;;;;31.11;30.43;95453.03;5133216;27;20430;-52
2022/10/25 11:05:21;;;;;;;1.23;1.23;;;;;;;32.88;28.74;95499.25;5133164;27;20430;-52
2022/10/25 11:07:56;;;;;;;0.50;0.50;;;;;;;33.31;27.91;95496.84;5133640;27;20430;-52
2022/10/25 11:10:30;;;;;;;1.37;0.50;;;;;;;32.33;28.61;95493.06;5133608;27;20785;-52
2022/10/25 11:13:15;;;;;;;1.83;1.73;;;;;;;31.91;29.12;95488.63;5133312;27;20785;-52
2022/10/25 11:16:17;;;;;;;3.03;1.20;;;;;;;32.36;28.94;95473.81;5133350;27;20445;-52
2022/10/25 11:18:57;;;;;;;0.77;0.77;;;;;;;32.11;28.43;95484.22;5133235;27;20441;-53
2022/10/25 11:21:39;;;;;;;0.60;0.57;;;;;;;33.04;27.99;95474.75;5133069;27;20422;-53
2022/10/25 11:24:15;;;;;;;1.67;1.60;;;;;;;31.98;29.09;95478.44;5132430;27;20940;-54
2022/10/25 11:26:56;;;;;;;2.20;0.40;;;;;;;32.96;28.05;95456.78;5133044;27;20422;-53
2022/10/25 11:29:40;;;;;;;2.23;0.63;;;;;;;33.06;28.11;95466.91;5132832;27;20434;-53
2022/10/25 11:32:37;;;;;;;0.93;0.70;;;;;;;32.59;28.33;95460.31;5132893;27;20431;-53
2022/10/25 11:35:18;;;;;;;0.50;0.50;;;;;;;33.10;27.87;95451.16;5132943;27;20474;-54
2022/10/25 11:37:53;;;;;;;0.53;0.53;;;;;;;33.86;27.41;95447.00;5133019;27;20449;-53
2022/10/25 11:40:32;;;;;;;0.60;0.50;;;;;;;34.52;27.27;95444.38;5132039;27;20433;-53
2022/10/25 11:43:15;;;;;;;1.33;1.33;;;;;;;34.65;26.19;95436.31;5132586;27;20993;-53
2022/10/25 11:45:45;;;;;;;0.43;0.30;;;;;;;35.67;26.50;95379.13;5132885;27;20912;-53
2022/10/25 11:48:37;;;;;;;0.40;0.40;;;;;;;36.09;25.19;95433.31;5132244;27;20419;-53
2022/10/25 11:51:17;;;;;;;0.43;0.40;;;;;;;35.63;26.29;95426.09;5132838;27;20675;-53
2022/10/25 11:54:13;;;;;;;1.07;0.97;;;;;;;36.02;25.49;95427.97;5132598;27;20352;-53
2022/10/25 11:56:53;;;;;;;0.80;0.40;;;;;;;35.72;25.85;95415.22;5132528;28;20652;-54
2022/10/25 11:59:29;;;;;;;0.70;0.70;;;;;;;36.32;26.22;95407.50;5132537;27;20197;-54
2022/10/25 12:02:12;;;;;;;1.40;0.70;;;;;;;35.94;30.74;95418.28;5132809;27;20184;-53